SAS32T EKCH-ENGM
Flight info
| Callsign | SAS32T |
|---|---|
| Flight time | 0h 51m |
| Altitude | 34000 |
| Route | VEDAR DCT SABAK DCT LUNIP |
| Aircraft | A320/M-SDE3FGHIJ1RWXYZ/ALB1 |
Departure
| Time | 2026-05-05 18:46 |
|---|---|
| Airport | Copenhagen Kastrup Airport (EKCH) |
Arrival
| Time | 2026-05-05 19:38 |
|---|---|
| Airport | Oslo-Gardermoen International Airport (ENGM) |
| Time | Latitude | Longitude | Altitude | Speed | Heading |
|---|---|---|---|---|---|
| 2026-05-05 18:18 | 55.62755 | 12.64476 | 29 ft | 0 kts | 102° |
| 2026-05-05 18:29 | 55.62755 | 12.64475 | 24 ft | 0 kts | 102° |
| 2026-05-05 18:33 | 55.62760 | 12.64436 | 24 ft | 4 kts | 102° |
| 2026-05-05 18:33 | 55.62763 | 12.64403 | 28 ft | 4 kts | 67° |
| 2026-05-05 18:34 | 55.62747 | 12.64377 | 29 ft | 2 kts | 27° |
| 2026-05-05 18:34 | 55.62732 | 12.64363 | 26 ft | 4 kts | 27° |
| 2026-05-05 18:34 | 55.62713 | 12.64346 | 26 ft | 4 kts | 26° |
| 2026-05-05 18:34 | 55.62689 | 12.64327 | 27 ft | 4 kts | 21° |
| 2026-05-05 18:35 | 55.62669 | 12.64314 | 28 ft | 4 kts | 21° |
| 2026-05-05 18:35 | 55.62644 | 12.64296 | 29 ft | 4 kts | 25° |
| 2026-05-05 18:35 | 55.62621 | 12.64274 | 29 ft | 3 kts | 34° |
| 2026-05-05 18:35 | 55.62603 | 12.64243 | 29 ft | 4 kts | 70° |
| 2026-05-05 18:36 | 55.62602 | 12.64200 | 28 ft | 4 kts | 116° |
| 2026-05-05 18:36 | 55.62615 | 12.64162 | 25 ft | 4 kts | 123° |
| 2026-05-05 18:36 | 55.62629 | 12.64125 | 28 ft | 2 kts | 123° |
| 2026-05-05 18:36 | 55.62630 | 12.64123 | 28 ft | 3 kts | 123° |
| 2026-05-05 18:37 | 55.62630 | 12.64122 | 28 ft | 0 kts | 123° |
| 2026-05-05 18:38 | 55.62624 | 12.64139 | 25 ft | 3 kts | 123° |
| 2026-05-05 18:38 | 55.62602 | 12.64198 | 24 ft | 8 kts | 123° |
| 2026-05-05 18:39 | 55.62563 | 12.64303 | 25 ft | 12 kts | 123° |
| 2026-05-05 18:39 | 55.62508 | 12.64450 | 24 ft | 16 kts | 127° |
| 2026-05-05 18:39 | 55.62400 | 12.64453 | 24 ft | 18 kts | 194° |
| 2026-05-05 18:39 | 55.62347 | 12.64428 | 23 ft | 0 kts | 195° |
| 2026-05-05 18:40 | 55.62346 | 12.64427 | 23 ft | 2 kts | 195° |
| 2026-05-05 18:40 | 55.62312 | 12.64410 | 23 ft | 9 kts | 193° |
| 2026-05-05 18:40 | 55.62226 | 12.64402 | 22 ft | 16 kts | 172° |
| 2026-05-05 18:40 | 55.62117 | 12.64437 | 23 ft | 14 kts | 169° |
| 2026-05-05 18:41 | 55.62019 | 12.64469 | 24 ft | 15 kts | 170° |
| 2026-05-05 18:41 | 55.61907 | 12.64504 | 24 ft | 17 kts | 170° |
| 2026-05-05 18:41 | 55.61783 | 12.64549 | 24 ft | 19 kts | 169° |
| 2026-05-05 18:41 | 55.61684 | 12.64565 | 24 ft | 14 kts | 193° |
| 2026-05-05 18:42 | 55.61593 | 12.64469 | 24 ft | 17 kts | 213° |
| 2026-05-05 18:42 | 55.61489 | 12.64349 | 24 ft | 19 kts | 213° |
| 2026-05-05 18:42 | 55.61372 | 12.64215 | 24 ft | 21 kts | 213° |
| 2026-05-05 18:42 | 55.61242 | 12.64066 | 24 ft | 24 kts | 213° |
| 2026-05-05 18:43 | 55.61097 | 12.63899 | 24 ft | 26 kts | 213° |
| 2026-05-05 18:43 | 55.60957 | 12.63739 | 26 ft | 19 kts | 213° |
| 2026-05-05 18:43 | 55.60841 | 12.63605 | 26 ft | 21 kts | 213° |
| 2026-05-05 18:43 | 55.60710 | 12.63456 | 25 ft | 24 kts | 213° |
| 2026-05-05 18:44 | 55.60575 | 12.63266 | 24 ft | 26 kts | 221° |
| 2026-05-05 18:44 | 55.60445 | 12.63116 | 24 ft | 20 kts | 172° |
| 2026-05-05 18:44 | 55.60358 | 12.63258 | 26 ft | 14 kts | 131° |
| 2026-05-05 18:44 | 55.60343 | 12.63345 | 26 ft | 8 kts | 60° |
| 2026-05-05 18:45 | 55.60364 | 12.63385 | 29 ft | 0 kts | 41° |
| 2026-05-05 18:46 | 55.60385 | 12.63417 | 29 ft | 19 kts | 41° |
| 2026-05-05 18:46 | 55.60714 | 12.63914 | 25 ft | 101 kts | 41° |
| 2026-05-05 18:46 | 55.61406 | 12.64991 | 29 ft | 165 kts | 41° |
| 2026-05-05 18:46 | 55.62324 | 12.66434 | 689 ft | 176 kts | 39° |
| 2026-05-05 18:47 | 55.63224 | 12.67856 | 1693 ft | 175 kts | 40° |
| 2026-05-05 18:47 | 55.64173 | 12.69332 | 2131 ft | 191 kts | 40° |
| 2026-05-05 18:47 | 55.65270 | 12.70869 | 2445 ft | 213 kts | 26° |
| 2026-05-05 18:47 | 55.66760 | 12.71162 | 2952 ft | 226 kts | 349° |
| 2026-05-05 18:48 | 55.68303 | 12.70514 | 3714 ft | 230 kts | 347° |
| 2026-05-05 18:48 | 55.69921 | 12.69851 | 4279 ft | 248 kts | 351° |
| 2026-05-05 18:48 | 55.71657 | 12.69481 | 5072 ft | 255 kts | 356° |
| 2026-05-05 18:48 | 55.73442 | 12.69305 | 5957 ft | 259 kts | 358° |
| 2026-05-05 18:49 | 55.75267 | 12.69183 | 6752 ft | 266 kts | 356° |
| 2026-05-05 18:49 | 55.77133 | 12.69058 | 7543 ft | 271 kts | 356° |
| 2026-05-05 18:49 | 55.79025 | 12.68901 | 8334 ft | 276 kts | 352° |
| 2026-05-05 18:49 | 55.80879 | 12.68072 | 9099 ft | 277 kts | 332° |
| 2026-05-05 18:50 | 55.82459 | 12.66199 | 9922 ft | 275 kts | 313° |
| 2026-05-05 18:50 | 55.83598 | 12.63519 | 10674 ft | 274 kts | 294° |
| 2026-05-05 18:50 | 55.84371 | 12.60311 | 10996 ft | 293 kts | 290° |
| 2026-05-05 18:50 | 55.85145 | 12.56826 | 11301 ft | 310 kts | 289° |
| 2026-05-05 18:51 | 55.85939 | 12.53201 | 11943 ft | 316 kts | 289° |
| 2026-05-05 18:51 | 55.86738 | 12.49552 | 12665 ft | 318 kts | 289° |
| 2026-05-05 18:51 | 55.87550 | 12.45865 | 13395 ft | 321 kts | 289° |
| 2026-05-05 18:51 | 55.88372 | 12.42151 | 14092 ft | 324 kts | 289° |
| 2026-05-05 18:52 | 55.89324 | 12.38492 | 14737 ft | 329 kts | 298° |
| 2026-05-05 18:52 | 55.90788 | 12.35288 | 15366 ft | 338 kts | 313° |
| 2026-05-05 18:52 | 55.92730 | 12.32840 | 15992 ft | 348 kts | 328° |
| 2026-05-05 18:52 | 55.95039 | 12.31362 | 16608 ft | 358 kts | 340° |
| 2026-05-05 18:53 | 55.97463 | 12.30244 | 17264 ft | 361 kts | 339° |
| 2026-05-05 18:53 | 55.99900 | 12.29119 | 17888 ft | 364 kts | 339° |
| 2026-05-05 18:53 | 56.02364 | 12.27975 | 18466 ft | 367 kts | 339° |
| 2026-05-05 18:53 | 56.04852 | 12.26816 | 19015 ft | 371 kts | 339° |
| 2026-05-05 18:54 | 56.07351 | 12.25651 | 19582 ft | 374 kts | 339° |
| 2026-05-05 18:54 | 56.09876 | 12.24472 | 20152 ft | 377 kts | 339° |
| 2026-05-05 18:54 | 56.12484 | 12.23590 | 20706 ft | 384 kts | 345° |
| 2026-05-05 18:54 | 56.15142 | 12.22863 | 21243 ft | 387 kts | 345° |
| 2026-05-05 18:55 | 56.17808 | 12.22136 | 21770 ft | 390 kts | 345° |
| 2026-05-05 18:55 | 56.20502 | 12.21400 | 22296 ft | 393 kts | 344° |
| 2026-05-05 18:55 | 56.23222 | 12.20654 | 22827 ft | 396 kts | 344° |
| 2026-05-05 18:55 | 56.25960 | 12.19905 | 23391 ft | 399 kts | 343° |
| 2026-05-05 18:56 | 56.28720 | 12.19150 | 23846 ft | 402 kts | 343° |
| 2026-05-05 18:56 | 56.31498 | 12.18384 | 24270 ft | 405 kts | 343° |
| 2026-05-05 18:56 | 56.34287 | 12.17610 | 24695 ft | 408 kts | 343° |
| 2026-05-05 18:56 | 56.37097 | 12.16825 | 25109 ft | 410 kts | 343° |
| 2026-05-05 18:57 | 56.39933 | 12.16035 | 25517 ft | 413 kts | 343° |
| 2026-05-05 18:57 | 56.42779 | 12.15243 | 25918 ft | 415 kts | 344° |
| 2026-05-05 18:57 | 56.45642 | 12.14449 | 26313 ft | 418 kts | 344° |
| 2026-05-05 18:57 | 56.48518 | 12.13648 | 26695 ft | 420 kts | 344° |
| 2026-05-05 18:58 | 56.51414 | 12.12837 | 27072 ft | 422 kts | 344° |
| 2026-05-05 18:58 | 56.54330 | 12.12022 | 27496 ft | 424 kts | 344° |
| 2026-05-05 18:58 | 56.57260 | 12.11206 | 27884 ft | 427 kts | 344° |
| 2026-05-05 18:58 | 56.60195 | 12.10387 | 28249 ft | 429 kts | 344° |
| 2026-05-05 18:59 | 56.63158 | 12.09557 | 28610 ft | 431 kts | 344° |
| 2026-05-05 18:59 | 56.66133 | 12.08720 | 28957 ft | 434 kts | 344° |
| 2026-05-05 18:59 | 56.69118 | 12.07880 | 29318 ft | 436 kts | 344° |
| 2026-05-05 18:59 | 56.72125 | 12.07032 | 29664 ft | 439 kts | 344° |
| 2026-05-05 19:00 | 56.75152 | 12.06179 | 30015 ft | 441 kts | 344° |
| 2026-05-05 19:00 | 56.78190 | 12.05321 | 30303 ft | 443 kts | 344° |
| 2026-05-05 19:00 | 56.81247 | 12.04456 | 30655 ft | 445 kts | 344° |
| 2026-05-05 19:00 | 56.84296 | 12.03594 | 31099 ft | 443 kts | 343° |
| 2026-05-05 19:01 | 56.87341 | 12.02727 | 31531 ft | 442 kts | 343° |
| 2026-05-05 19:01 | 56.90369 | 12.01863 | 31957 ft | 441 kts | 343° |
| 2026-05-05 19:01 | 56.93399 | 12.00997 | 32386 ft | 440 kts | 343° |
| 2026-05-05 19:01 | 56.96416 | 12.00137 | 32812 ft | 439 kts | 343° |
| 2026-05-05 19:02 | 56.99434 | 11.99275 | 33239 ft | 438 kts | 343° |
| 2026-05-05 19:02 | 57.02442 | 11.98415 | 33663 ft | 437 kts | 343° |
| 2026-05-05 19:02 | 57.05455 | 11.97549 | 33925 ft | 438 kts | 343° |
| 2026-05-05 19:02 | 57.08451 | 11.96686 | 34007 ft | 435 kts | 343° |
| 2026-05-05 19:03 | 57.14408 | 11.94972 | 33967 ft | 433 kts | 343° |
| 2026-05-05 19:03 | 57.20360 | 11.93254 | 33976 ft | 433 kts | 343° |
| 2026-05-05 19:04 | 57.26321 | 11.91521 | 33969 ft | 434 kts | 343° |
| 2026-05-05 19:04 | 57.32290 | 11.89782 | 33966 ft | 434 kts | 343° |
| 2026-05-05 19:05 | 57.38223 | 11.88045 | 34011 ft | 434 kts | 342° |
| 2026-05-05 19:05 | 57.44196 | 11.86291 | 33996 ft | 434 kts | 343° |
| 2026-05-05 19:06 | 57.50207 | 11.84535 | 33989 ft | 434 kts | 343° |
| 2026-05-05 19:06 | 57.56143 | 11.82791 | 33944 ft | 434 kts | 342° |
| 2026-05-05 19:07 | 57.62097 | 11.81025 | 33961 ft | 433 kts | 342° |
| 2026-05-05 19:07 | 57.68048 | 11.79254 | 33895 ft | 431 kts | 342° |
| 2026-05-05 19:08 | 57.73963 | 11.77491 | 33890 ft | 430 kts | 342° |
| 2026-05-05 19:08 | 57.79878 | 11.75722 | 33894 ft | 430 kts | 342° |
| 2026-05-05 19:09 | 57.85792 | 11.73941 | 33905 ft | 431 kts | 342° |
| 2026-05-05 19:09 | 57.91714 | 11.72159 | 33916 ft | 431 kts | 342° |
| 2026-05-05 19:10 | 57.97629 | 11.70372 | 33941 ft | 429 kts | 341° |
| 2026-05-05 19:10 | 58.03518 | 11.68588 | 33943 ft | 429 kts | 341° |
| 2026-05-05 19:11 | 58.09414 | 11.66803 | 33954 ft | 429 kts | 341° |
| 2026-05-05 19:11 | 58.15303 | 11.65005 | 33970 ft | 429 kts | 341° |
| 2026-05-05 19:12 | 58.21207 | 11.63189 | 33971 ft | 430 kts | 341° |
| 2026-05-05 19:12 | 58.27080 | 11.61331 | 33953 ft | 421 kts | 341° |
| 2026-05-05 19:13 | 58.29938 | 11.60436 | 33632 ft | 412 kts | 341° |
| 2026-05-05 19:13 | 58.32807 | 11.59507 | 32435 ft | 426 kts | 341° |
| 2026-05-05 19:13 | 58.35745 | 11.58536 | 31664 ft | 429 kts | 341° |
| 2026-05-05 19:13 | 58.38685 | 11.57573 | 30970 ft | 430 kts | 341° |
| 2026-05-05 19:14 | 58.41628 | 11.56624 | 30491 ft | 425 kts | 341° |
| 2026-05-05 19:14 | 58.44499 | 11.55722 | 30342 ft | 412 kts | 341° |
| 2026-05-05 19:14 | 58.47302 | 11.54847 | 30090 ft | 403 kts | 341° |
| 2026-05-05 19:14 | 58.50042 | 11.53988 | 29807 ft | 395 kts | 341° |
| 2026-05-05 19:15 | 58.52736 | 11.53132 | 29397 ft | 392 kts | 340° |
| 2026-05-05 19:15 | 58.55413 | 11.52267 | 28941 ft | 388 kts | 340° |
| 2026-05-05 19:15 | 58.58070 | 11.51402 | 28513 ft | 384 kts | 340° |
| 2026-05-05 19:15 | 58.60686 | 11.50547 | 28108 ft | 381 kts | 340° |
| 2026-05-05 19:16 | 58.63294 | 11.49694 | 27723 ft | 378 kts | 340° |
| 2026-05-05 19:16 | 58.65885 | 11.48847 | 27330 ft | 376 kts | 340° |
| 2026-05-05 19:16 | 58.68450 | 11.48006 | 26944 ft | 374 kts | 340° |
| 2026-05-05 19:16 | 58.71011 | 11.47165 | 26556 ft | 372 kts | 340° |
| 2026-05-05 19:17 | 58.73556 | 11.46332 | 26172 ft | 370 kts | 340° |
| 2026-05-05 19:17 | 58.76086 | 11.45510 | 25786 ft | 368 kts | 340° |
| 2026-05-05 19:17 | 58.78602 | 11.44697 | 25405 ft | 366 kts | 340° |
| 2026-05-05 19:17 | 58.81104 | 11.43885 | 25036 ft | 364 kts | 340° |
| 2026-05-05 19:18 | 58.83598 | 11.43064 | 24607 ft | 363 kts | 339° |
| 2026-05-05 19:18 | 58.85242 | 11.42518 | 24336 ft | 363 kts | 339° |
| 2026-05-05 19:18 | 58.87729 | 11.41696 | 23907 ft | 362 kts | 340° |
| 2026-05-05 19:18 | 58.91010 | 11.40616 | 23339 ft | 361 kts | 340° |
| 2026-05-05 19:19 | 58.92677 | 11.40068 | 23031 ft | 359 kts | 340° |
| 2026-05-05 19:19 | 58.95923 | 11.39002 | 22468 ft | 355 kts | 340° |
| 2026-05-05 19:19 | 58.98341 | 11.38211 | 22047 ft | 351 kts | 339° |
| 2026-05-05 19:19 | 59.00747 | 11.37418 | 21622 ft | 348 kts | 339° |
| 2026-05-05 19:20 | 59.02351 | 11.36883 | 21340 ft | 346 kts | 339° |
| 2026-05-05 19:20 | 59.04713 | 11.36095 | 20925 ft | 343 kts | 339° |
| 2026-05-05 19:20 | 59.07052 | 11.35313 | 20508 ft | 340 kts | 339° |
| 2026-05-05 19:20 | 59.09376 | 11.34537 | 20102 ft | 337 kts | 339° |
| 2026-05-05 19:21 | 59.11672 | 11.33774 | 19843 ft | 331 kts | 339° |
| 2026-05-05 19:21 | 59.13878 | 11.33052 | 19661 ft | 322 kts | 338° |
| 2026-05-05 19:21 | 59.16072 | 11.32328 | 19302 ft | 319 kts | 338° |
| 2026-05-05 19:21 | 59.18252 | 11.31598 | 18934 ft | 316 kts | 338° |
| 2026-05-05 19:22 | 59.20433 | 11.30980 | 18565 ft | 317 kts | 340° |
| 2026-05-05 19:22 | 59.22623 | 11.30495 | 18195 ft | 316 kts | 342° |
| 2026-05-05 19:22 | 59.24805 | 11.30075 | 17785 ft | 315 kts | 342° |
| 2026-05-05 19:22 | 59.26981 | 11.29674 | 17382 ft | 313 kts | 343° |
| 2026-05-05 19:23 | 59.29138 | 11.29273 | 16982 ft | 310 kts | 343° |
| 2026-05-05 19:23 | 59.31279 | 11.28860 | 16604 ft | 308 kts | 343° |
| 2026-05-05 19:23 | 59.33404 | 11.28432 | 16230 ft | 306 kts | 344° |
| 2026-05-05 19:23 | 59.35516 | 11.27992 | 15857 ft | 304 kts | 344° |
| 2026-05-05 19:24 | 59.37604 | 11.27556 | 15489 ft | 301 kts | 345° |
| 2026-05-05 19:24 | 59.39685 | 11.27120 | 15129 ft | 300 kts | 345° |
| 2026-05-05 19:24 | 59.41746 | 11.26689 | 14814 ft | 297 kts | 346° |
| 2026-05-05 19:24 | 59.43799 | 11.26262 | 14448 ft | 295 kts | 346° |
| 2026-05-05 19:25 | 59.45832 | 11.25839 | 14027 ft | 291 kts | 347° |
| 2026-05-05 19:25 | 59.47834 | 11.25381 | 13340 ft | 288 kts | 346° |
| 2026-05-05 19:25 | 59.49671 | 11.24340 | 12977 ft | 265 kts | 333° |
| 2026-05-05 19:25 | 59.51335 | 11.23037 | 12671 ft | 251 kts | 333° |
| 2026-05-05 19:26 | 59.52946 | 11.21764 | 12371 ft | 250 kts | 333° |
| 2026-05-05 19:26 | 59.54566 | 11.20469 | 12060 ft | 252 kts | 333° |
| 2026-05-05 19:26 | 59.56159 | 11.19187 | 11754 ft | 251 kts | 333° |
| 2026-05-05 19:26 | 59.57796 | 11.17867 | 11429 ft | 251 kts | 333° |
| 2026-05-05 19:27 | 59.59426 | 11.16554 | 11131 ft | 253 kts | 333° |
| 2026-05-05 19:27 | 59.61054 | 11.15240 | 10818 ft | 252 kts | 334° |
| 2026-05-05 19:27 | 59.62669 | 11.13931 | 10514 ft | 251 kts | 334° |
| 2026-05-05 19:27 | 59.64286 | 11.12619 | 10204 ft | 251 kts | 334° |
| 2026-05-05 19:28 | 59.65907 | 11.11305 | 9892 ft | 252 kts | 334° |
| 2026-05-05 19:28 | 59.67525 | 11.09996 | 9562 ft | 252 kts | 334° |
| 2026-05-05 19:28 | 59.69142 | 11.08688 | 9243 ft | 251 kts | 334° |
| 2026-05-05 19:28 | 59.70754 | 11.07381 | 8936 ft | 250 kts | 335° |
| 2026-05-05 19:29 | 59.72363 | 11.06075 | 8598 ft | 250 kts | 335° |
| 2026-05-05 19:29 | 59.73968 | 11.04770 | 8301 ft | 249 kts | 335° |
| 2026-05-05 19:29 | 59.75572 | 11.03465 | 7983 ft | 249 kts | 335° |
| 2026-05-05 19:29 | 59.77168 | 11.02168 | 7663 ft | 249 kts | 335° |
| 2026-05-05 19:30 | 59.78766 | 11.00863 | 7347 ft | 249 kts | 335° |
| 2026-05-05 19:30 | 59.80365 | 10.99556 | 7084 ft | 247 kts | 335° |
| 2026-05-05 19:30 | 59.81951 | 10.98264 | 6793 ft | 246 kts | 336° |
| 2026-05-05 19:30 | 59.83528 | 10.96978 | 6486 ft | 245 kts | 336° |
| 2026-05-05 19:31 | 59.85084 | 10.95705 | 6178 ft | 245 kts | 336° |
| 2026-05-05 19:31 | 59.86655 | 10.94418 | 5834 ft | 245 kts | 336° |
| 2026-05-05 19:31 | 59.88228 | 10.93130 | 5511 ft | 244 kts | 336° |
| 2026-05-05 19:31 | 59.89819 | 10.91975 | 5181 ft | 244 kts | 347° |
| 2026-05-05 19:32 | 59.91519 | 10.91996 | 4991 ft | 239 kts | 11° |
| 2026-05-05 19:32 | 59.93067 | 10.92849 | 4915 ft | 228 kts | 14° |
| 2026-05-05 19:32 | 59.94558 | 10.93698 | 4823 ft | 219 kts | 14° |
| 2026-05-05 19:32 | 59.96011 | 10.94522 | 4644 ft | 216 kts | 14° |
| 2026-05-05 19:33 | 59.97450 | 10.95338 | 4465 ft | 215 kts | 14° |
| 2026-05-05 19:33 | 59.98893 | 10.96158 | 4354 ft | 215 kts | 14° |
| 2026-05-05 19:33 | 60.00332 | 10.96976 | 4268 ft | 215 kts | 14° |
| 2026-05-05 19:33 | 60.01767 | 10.97794 | 4079 ft | 213 kts | 13° |
| 2026-05-05 19:34 | 60.03183 | 10.98600 | 3805 ft | 211 kts | 13° |
| 2026-05-05 19:34 | 60.04584 | 10.99400 | 3506 ft | 206 kts | 13° |
| 2026-05-05 19:34 | 60.05922 | 11.00165 | 3220 ft | 195 kts | 13° |
| 2026-05-05 19:35 | 60.08352 | 11.01556 | 2695 ft | 168 kts | 12° |
| 2026-05-05 19:35 | 60.09409 | 11.02163 | 2476 ft | 148 kts | 12° |
| 2026-05-05 19:35 | 60.10375 | 11.02714 | 2268 ft | 141 kts | 11° |
| 2026-05-05 19:35 | 60.11307 | 11.03246 | 2062 ft | 138 kts | 11° |
| 2026-05-05 19:36 | 60.12229 | 11.03773 | 1868 ft | 137 kts | 12° |
| 2026-05-05 19:36 | 60.13148 | 11.04300 | 1683 ft | 137 kts | 12° |
| 2026-05-05 19:36 | 60.14063 | 11.04824 | 1497 ft | 137 kts | 12° |
| 2026-05-05 19:36 | 60.14967 | 11.05377 | 1327 ft | 138 kts | 15° |
| 2026-05-05 19:37 | 60.15886 | 11.05943 | 1169 ft | 138 kts | 12° |
| 2026-05-05 19:37 | 60.16812 | 11.06425 | 1038 ft | 138 kts | 14° |
| 2026-05-05 19:37 | 60.17737 | 11.06978 | 873 ft | 138 kts | 12° |
| 2026-05-05 19:37 | 60.18655 | 11.07484 | 711 ft | 136 kts | 13° |
| 2026-05-05 19:38 | 60.19464 | 11.07938 | 690 ft | 99 kts | 16° |
| 2026-05-05 19:38 | 60.19962 | 11.08222 | 690 ft | 54 kts | 16° |
| 2026-05-05 19:38 | 60.20212 | 11.08441 | 686 ft | 27 kts | 54° |
| 2026-05-05 19:38 | 60.20241 | 11.08652 | 684 ft | 9 kts | 104° |
| 2026-05-05 19:39 | 60.20239 | 11.08672 | 686 ft | 0 kts | 104° |
| 2026-05-05 19:39 | 60.20236 | 11.08691 | 688 ft | 3 kts | 104° |
| 2026-05-05 19:39 | 60.20229 | 11.08747 | 690 ft | 6 kts | 104° |
| 2026-05-05 19:40 | 60.20216 | 11.08839 | 689 ft | 8 kts | 107° |
| 2026-05-05 19:40 | 60.20211 | 11.08874 | 683 ft | 2 kts | 107° |
| 2026-05-05 19:40 | 60.20197 | 11.08901 | 684 ft | 4 kts | 156° |
| 2026-05-05 19:40 | 60.20165 | 11.08897 | 690 ft | 6 kts | 192° |
| 2026-05-05 19:41 | 60.20104 | 11.08863 | 690 ft | 11 kts | 196° |
| 2026-05-05 19:41 | 60.20019 | 11.08814 | 690 ft | 14 kts | 196° |
| 2026-05-05 19:41 | 60.19914 | 11.08755 | 690 ft | 17 kts | 196° |
| 2026-05-05 19:41 | 60.19835 | 11.08842 | 686 ft | 17 kts | 105° |
| 2026-05-05 19:42 | 60.19800 | 11.09082 | 690 ft | 19 kts | 105° |
| 2026-05-05 19:42 | 60.19753 | 11.09318 | 684 ft | 16 kts | 153° |
| 2026-05-05 19:42 | 60.19667 | 11.09392 | 689 ft | 10 kts | 171° |
| 2026-05-05 19:42 | 60.19601 | 11.09365 | 690 ft | 5 kts | 195° |
| 2026-05-05 19:43 | 60.19588 | 11.09359 | 688 ft | 1 kts | 195° |
| 2026-05-05 19:43 | 60.19581 | 11.09355 | 689 ft | 1 kts | 195° |
| 2026-05-05 19:43 | 60.19573 | 11.09350 | 690 ft | 0 kts | 195° |